Union Gap, Washington
Current Conditions -  °F | °C
As of 7:53 AM on Tuesday 21 Oct 2014 (Local Time) from KYKM Reporting Station
Haze Haze  
Wind Chill: 39°   Ceiling: Unl
Heat Index: 39°   Visibility: 6mi
Dew Point: 38°   Wind: 0mph
Humidity: 96%   Direction: NA
Pressure: 29.91"   Gusts: NA
Location:  46.562°N, 120.899°W
Report Text: KYKM 211453Z 00000KT 6SM BR FEW002 SCT070 04/03 A2991 RMK AO2 SLP132 T00390033 53012
Loading
Personal Weather Stations






























Interactive Weather Map
Tropical Storm Tracking
New forecast layout! Learn more

10-Day Weather Forecast

Advertisements
Track Severe Weather on mobile